Time;durP1;ratioP1;P1;durP2;ratioP2;P2;SDS_P1;SDS_P2;PMS_P1;PMS_P2;Temp;Humidity;BMP_temperature;BMP_pressure;BME280_temperature;BME280_humidity;BME280_pressure;Samples;Min_cycle;Max_cycle;Signal;HPM_P1;HPM_P2
2022/12/25 00:01:31;;;;;;;11.35;8.20;;;;;;;7.09;100.00;100618.56;5012762;28;20038;-72
2022/12/25 00:03:57;;;;;;;11.40;7.53;;;;;;;6.92;100.00;100640.75;4911885;29;20044;-72
2022/12/25 00:06:22;;;;;;;12.15;7.70;;;;;;;6.69;100.00;100639.50;4892723;29;20052;-72
2022/12/25 00:08:48;;;;;;;12.50;7.88;;;;;;;6.64;100.00;100646.94;4893011;29;20044;-72
2022/12/25 00:11:16;;;;;;;13.98;8.32;;;;;;;6.50;100.00;100654.66;4894899;29;20583;-72
2022/12/25 00:13:43;;;;;;;11.13;8.35;;;;;;;6.22;100.00;100617.19;4896754;29;20044;-72
2022/12/25 00:16:14;;;;;;;11.00;7.93;;;;;;;6.30;100.00;100657.84;4896939;29;20127;-72
2022/12/25 00:18:39;;;;;;;12.35;8.13;;;;;;;6.17;100.00;100660.53;4897003;29;20435;-72
2022/12/25 00:21:06;;;;;;;12.23;8.80;;;;;;;6.03;100.00;100638.31;4896746;29;20048;-72
2022/12/25 00:23:32;;;;;;;11.60;7.95;;;;;;;6.19;100.00;100660.59;4896696;29;20041;-72
2022/12/25 00:25:58;;;;;;;15.07;8.93;;;;;;;6.18;100.00;100666.53;4896430;29;20075;-72
2022/12/25 00:28:24;;;;;;;12.75;7.85;;;;;;;6.13;100.00;100685.09;4896764;29;20188;-72
2022/12/25 00:30:50;;;;;;;12.30;8.75;;;;;;;5.90;100.00;100677.72;4896569;29;20419;-71
2022/12/25 00:33:16;;;;;;;12.50;8.30;;;;;;;5.91;100.00;100688.03;4896479;29;20048;-72
2022/12/25 00:35:42;;;;;;;12.93;8.98;;;;;;;5.95;100.00;100694.22;4896706;29;20036;-72
2022/12/25 00:38:08;;;;;;;13.25;8.88;;;;;;;5.62;100.00;100619.69;4911581;29;20469;-72
2022/12/25 00:40:39;;;;;;;16.25;8.88;;;;;;;6.01;100.00;100680.91;4963041;28;20072;-72
2022/12/25 00:43:05;;;;;;;14.65;8.93;;;;;;;5.89;100.00;100661.44;4994226;28;20037;-72
2022/12/25 00:45:30;;;;;;;13.02;9.00;;;;;;;6.10;100.00;100695.16;4994710;28;20055;-72
2022/12/25 00:47:56;;;;;;;14.93;9.13;;;;;;;6.15;100.00;100698.88;4994567;28;20424;-72
2022/12/25 00:50:21;;;;;;;14.02;8.32;;;;;;;6.21;100.00;100688.09;4994179;28;20034;-72
2022/12/25 00:52:46;;;;;;;12.52;8.38;;;;;;;6.21;100.00;100692.34;4994146;28;20023;-72
2022/12/25 00:55:12;;;;;;;13.32;9.32;;;;;;;6.28;100.00;100687.66;4994448;28;20591;-72
2022/12/25 00:57:37;;;;;;;12.98;8.25;;;;;;;6.32;100.00;100691.28;4994377;28;20027;-72
2022/12/25 01:00:03;;;;;;;12.45;8.48;;;;;;;6.29;100.00;100686.88;4994377;28;20022;-72
2022/12/25 01:02:29;;;;;;;12.75;8.63;;;;;;;6.34;100.00;100689.69;4994201;28;20037;-72
2022/12/25 01:04:55;;;;;;;12.27;8.20;;;;;;;6.42;100.00;100706.41;4994042;28;20030;-72
2022/12/25 01:07:23;;;;;;;12.00;8.30;;;;;;;6.32;100.00;100686.16;4993813;28;20481;-72
2022/12/25 01:12:34;;;;;;;11.75;7.65;;;;;;;6.29;100.00;100694.56;4994119;28;20065;-72
2022/12/25 01:15:00;;;;;;;12.68;7.63;;;;;;;6.29;100.00;100698.78;4994019;28;20031;-72
2022/12/25 01:17:25;;;;;;;9.60;6.90;;;;;;;6.30;100.00;100692.88;4993692;28;20396;-73
2022/12/25 01:19:51;;;;;;;11.40;8.77;;;;;;;6.39;100.00;100708.81;5010664;28;20068;-72
2022/12/25 01:22:16;;;;;;;8.68;6.68;;;;;;;6.10;100.00;100661.81;5012773;28;20036;-72
2022/12/25 01:24:43;;;;;;;9.38;7.30;;;;;;;6.40;100.00;100713.09;5013293;28;20032;-72
2022/12/25 01:27:09;;;;;;;13.18;8.13;;;;;;;6.39;100.00;100715.59;5013152;28;20057;-72
2022/12/25 01:29:34;;;;;;;13.00;8.05;;;;;;;6.34;100.00;100717.00;5013454;28;20030;-72
2022/12/25 01:32:00;;;;;;;10.65;7.15;;;;;;;6.17;100.00;100695.50;5013377;28;20557;-72
2022/12/25 01:34:25;;;;;;;10.95;7.20;;;;;;;6.03;100.00;100682.78;5013054;28;20026;-72
2022/12/25 01:36:50;;;;;;;10.43;6.78;;;;;;;6.13;100.00;100697.00;5012877;28;20049;-72
2022/12/25 01:39:16;;;;;;;11.63;6.18;;;;;;;6.16;100.00;100697.19;5013319;28;20025;-72
2022/12/25 01:41:41;;;;;;;9.85;6.60;;;;;;;6.39;100.00;100724.19;5013065;28;20503;-72
2022/12/25 01:44:36;;;;;;;14.32;8.10;;;;;;;6.23;100.00;100730.09;5012976;28;21018;-72
2022/12/25 01:47:03;;;;;;;11.07;7.00;;;;;;;6.24;100.00;100734.44;5012569;28;20076;-72
2022/12/25 01:49:32;;;;;;;13.85;7.15;;;;;;;6.02;100.00;100690.38;5013026;28;20531;-72
2022/12/25 01:52:18;;;;;;;10.52;6.82;;;;;;;6.20;100.00;100735.03;5012047;28;20119;-72
2022/12/25 01:54:57;;;;;;;16.13;9.77;;;;;;;6.24;100.00;100744.69;5011139;28;20029;-72
2022/12/25 01:57:29;;;;;;;17.33;11.57;;;;;;;6.22;100.00;100745.38;5011305;28;20468;-72
2022/12/25 01:59:56;;;;;;;18.23;11.65;;;;;;;6.25;100.00;100737.88;5012833;28;20026;-72
2022/12/25 02:02:22;;;;;;;17.20;10.02;;;;;;;6.23;100.00;100736.88;5012749;28;20392;-72
2022/12/25 02:05:14;;;;;;;17.17;9.50;;;;;;;6.09;100.00;100746.34;5012471;28;20030;-72
2022/12/25 02:07:41;;;;;;;15.32;10.27;;;;;;;5.72;100.00;100665.56;5012595;28;20172;-72
2022/12/25 02:10:09;;;;;;;19.70;9.77;;;;;;;5.90;100.00;100706.75;5012406;28;20033;-72
2022/12/25 02:12:36;;;;;;;13.55;8.77;;;;;;;5.97;100.00;100729.41;5012227;28;20029;-72
2022/12/25 02:15:07;;;;;;;10.98;7.53;;;;;;;5.76;100.00;100733.25;5012375;28;20115;-72
2022/12/25 02:18:26;;;;;;;10.55;7.72;;;;;;;5.60;100.00;100739.13;5007430;28;20025;-72
2022/12/25 02:20:52;;;;;;;;;;;;;;;5.46;100.00;100751.06;4913966;29;20032;-70
2022/12/25 02:23:54;;;;;;;10.15;6.72;;;;;;;5.47;100.00;100745.13;4913033;29;19919;-71
2022/12/25 02:26:39;;;;;;;8.73;5.68;;;;;;;5.06;100.00;100717.84;4912926;29;20071;-71
2022/12/25 02:29:23;;;;;;;10.57;6.53;;;;;;;5.12;100.00;100741.25;4912172;29;20144;-71
2022/12/25 02:32:07;;;;;;;7.00;4.57;;;;;;;4.91;100.00;100735.66;4912973;29;20100;-70
2022/12/25 02:34:44;;;;;;;7.70;5.40;;;;;;;4.88;100.00;100735.47;4910499;29;20122;-70
2022/12/25 02:37:18;;;;;;;10.27;6.57;;;;;;;4.63;100.00;100683.63;4913025;29;20411;-70
2022/12/25 02:39:59;;;;;;;11.88;6.40;;;;;;;5.12;100.00;100726.81;4913177;29;20055;-70
2022/12/25 03:07:41;;;;;;;10.40;6.55;;;;;;;4.75;100.00;100726.13;4991892;28;20037;-70
2022/12/25 03:13:05;;;;;;;9.35;6.50;;;;;;;5.02;100.00;100766.28;4991840;28;20165;-70
2022/12/25 03:18:25;;;;;;;9.82;6.88;;;;;;;4.97;100.00;100759.97;4991671;28;20042;-70
2022/12/25 03:29:09;;;;;;;11.80;6.78;;;;;;;4.73;100.00;100758.41;5002299;28;20040;-70
2022/12/25 03:31:58;;;;;;;9.77;7.03;;;;;;;4.52;100.00;100745.97;5011165;28;20034;-70
2022/12/25 04:36:08;;;;;;;14.57;10.07;;;;;;;4.03;100.00;100856.00;4955220;28;20161;-70
2022/12/25 04:38:34;;;;;;;12.65;8.88;;;;;;;3.92;100.00;100868.03;4969107;28;20436;-70
2022/12/25 04:41:01;;;;;;;12.85;7.70;;;;;;;3.94;100.00;100876.69;4969208;28;20074;-70
2022/12/25 04:43:26;;;;;;;13.90;8.07;;;;;;;3.67;100.00;100878.19;4969082;28;20043;-70
2022/12/25 04:45:56;;;;;;;12.88;8.32;;;;;;;3.31;100.00;100888.41;4969089;28;20057;-70
2022/12/25 04:48:22;;;;;;;11.20;7.85;;;;;;;3.34;100.00;100880.97;4968846;28;20034;-70
2022/12/25 04:50:48;;;;;;;13.60;8.48;;;;;;;3.48;100.00;100891.31;4969080;28;20166;-70
2022/12/25 04:53:13;;;;;;;13.63;8.18;;;;;;;3.32;100.00;100851.03;4969020;28;20039;-70
2022/12/25 04:55:39;;;;;;;13.57;8.27;;;;;;;3.60;100.00;100894.75;4969050;28;20039;-70
2022/12/25 04:58:04;;;;;;;16.42;9.13;;;;;;;3.63;100.00;100907.72;4979047;28;20056;-70
2022/12/25 05:00:29;;;;;;;13.75;9.50;;;;;;;3.65;100.00;100910.38;5013828;28;20041;-70
2022/12/25 05:02:57;;;;;;;14.23;9.32;;;;;;;3.51;100.00;100917.03;5013832;28;20040;-70
2022/12/25 05:05:22;;;;;;;13.40;8.50;;;;;;;2.96;100.00;100875.63;5014112;28;20384;-70
2022/12/25 05:07:47;;;;;;;14.30;8.60;;;;;;;3.06;100.00;100909.56;5013872;28;20036;-70
2022/12/25 05:10:13;;;;;;;13.50;9.35;;;;;;;3.05;100.00;100915.44;5013493;28;20583;-70
2022/12/25 05:12:38;;;;;;;13.65;8.90;;;;;;;3.19;100.00;100926.66;5013423;28;20026;-70
2022/12/25 05:15:04;;;;;;;14.35;9.57;;;;;;;3.30;100.00;100929.13;5013392;28;20030;-70
2022/12/25 05:17:30;;;;;;;17.27;10.35;;;;;;;3.16;100.00;100893.25;5013298;28;20099;-70
2022/12/25 05:19:55;;;;;;;18.90;11.57;;;;;;;3.21;100.00;100901.25;5013804;28;20041;-70
2022/12/25 05:22:20;;;;;;;19.23;12.82;;;;;;;3.35;100.00;100938.00;5013431;28;20084;-70
2022/12/25 05:24:46;;;;;;;15.45;10.38;;;;;;;3.34;100.00;100939.69;5013184;28;20160;-71
2022/12/25 05:27:11;;;;;;;15.20;10.32;;;;;;;3.16;100.00;100911.13;4995766;28;20408;-70
2022/12/25 05:29:36;;;;;;;16.67;10.52;;;;;;;3.52;100.00;100952.00;5013314;28;20033;-70
2022/12/25 05:32:02;;;;;;;16.88;11.10;;;;;;;3.56;100.00;100954.00;5013226;28;20049;-70
2022/12/25 05:34:27;;;;;;;16.33;11.70;;;;;;;3.60;100.00;100960.22;5013248;28;20470;-70
2022/12/25 05:36:53;;;;;;;14.85;10.15;;;;;;;3.55;100.00;100962.44;5013128;28;20073;-70
2022/12/25 05:39:18;;;;;;;16.13;10.02;;;;;;;3.48;100.00;100957.66;5013046;28;20088;-70
2022/12/25 05:41:44;;;;;;;14.57;9.48;;;;;;;3.43;100.00;100961.53;5012873;28;20042;-70
2022/12/25 05:44:11;;;;;;;15.07;10.45;;;;;;;3.34;100.00;100959.19;5012959;28;20069;-70
2022/12/25 05:46:36;;;;;;;13.57;9.82;;;;;;;3.30;100.00;100963.19;5012611;28;20476;-70
2022/12/25 05:49:02;;;;;;;15.77;10.35;;;;;;;3.35;100.00;100966.97;5012788;28;20044;-70
2022/12/25 05:51:27;;;;;;;15.85;10.77;;;;;;;3.39;100.00;100974.06;5006736;28;20030;-70
2022/12/25 05:53:52;;;;;;;15.10;10.48;;;;;;;3.27;100.00;100952.75;4985692;28;20038;-71
2022/12/25 05:56:18;;;;;;;14.40;9.82;;;;;;;3.33;100.00;100971.06;4991795;28;20934;-70
2022/12/25 05:58:43;;;;;;;23.42;15.35;;;;;;;3.32;100.00;100976.06;4994824;28;20105;-70
2022/12/25 06:01:12;;;;;;;28.70;20.13;;;;;;;3.32;100.00;100983.72;4992263;28;20036;-71
2022/12/25 06:03:37;;;;;;;18.42;11.70;;;;;;;2.98;100.00;100973.53;4996651;28;20038;-71
2022/12/25 06:06:03;;;;;;;16.17;11.32;;;;;;;2.72;100.00;100991.16;5007195;28;20389;-70
2022/12/25 06:08:29;;;;;;;16.08;11.88;;;;;;;2.73;100.00;100984.44;5010252;28;20037;-71
2022/12/25 06:10:54;;;;;;;15.25;10.90;;;;;;;2.92;100.00;101004.56;5012296;28;20037;-72
2022/12/25 06:13:19;;;;;;;16.13;11.25;;;;;;;2.98;100.00;101007.59;4961079;28;20042;-72
2022/12/25 06:15:45;;;;;;;15.85;11.23;;;;;;;2.80;100.00;100979.00;5003800;28;20032;-70
2022/12/25 06:18:10;;;;;;;18.08;13.27;;;;;;;3.05;100.00;101012.38;4995940;28;20520;-70
2022/12/25 06:20:39;;;;;;;16.23;10.30;;;;;;;2.88;100.00;101012.75;5001326;28;20030;-71
2022/12/25 06:23:04;;;;;;;15.73;10.90;;;;;;;2.75;100.00;101024.56;4991556;28;20038;-71
2022/12/25 06:25:30;;;;;;;15.75;11.20;;;;;;;2.80;100.00;101007.06;4992130;28;20077;-71
2022/12/25 06:27:55;;;;;;;16.05;11.30;;;;;;;2.85;100.00;101020.16;4992304;28;20030;-71
2022/12/25 06:30:21;;;;;;;17.02;11.38;;;;;;;2.77;100.00;101014.47;4990807;28;20038;-71
2022/12/25 06:32:46;;;;;;;16.70;11.90;;;;;;;2.90;100.00;101036.69;4993427;28;20092;-70
2022/12/25 06:35:12;;;;;;;17.05;12.25;;;;;;;2.80;100.00;101032.56;4991500;28;20026;-70
2022/12/25 06:37:37;;;;;;;18.40;13.27;;;;;;;2.97;100.00;101032.97;4991543;28;20040;-70
2022/12/25 06:40:24;;;;;;;18.80;12.73;;;;;;;3.10;100.00;101028.00;4991226;28;20022;-70
2022/12/25 06:42:51;;;;;;;20.85;12.38;;;;;;;3.05;100.00;101002.19;4949563;28;20039;-70
2022/12/25 06:45:16;;;;;;;20.17;13.13;;;;;;;3.12;100.00;101020.50;4949752;28;20047;-71
2022/12/25 06:47:42;;;;;;;30.08;20.35;;;;;;;3.35;100.00;101047.75;4949652;28;20597;-70
2022/12/25 06:50:07;;;;;;;21.75;14.38;;;;;;;3.40;100.00;101060.09;4951029;28;20063;-71
2022/12/25 06:52:32;;;;;;;27.40;17.05;;;;;;;3.36;100.00;101058.06;4949984;28;20421;-71
2022/12/25 06:54:58;;;;;;;22.05;14.48;;;;;;;3.32;100.00;101055.19;4949820;28;20046;-70
2022/12/25 06:57:23;;;;;;;18.42;14.18;;;;;;;3.00;100.00;101020.44;4949264;28;20110;-70
2022/12/25 06:59:49;;;;;;;20.10;13.95;;;;;;;2.97;100.00;101025.34;4949589;28;20035;-70
2022/12/25 07:02:20;;;;;;;18.90;12.45;;;;;;;3.29;100.00;101058.38;4949828;28;20038;-71
2022/12/25 07:04:46;;;;;;;18.25;12.88;;;;;;;3.48;100.00;101065.75;4950072;28;20100;-70
2022/12/25 07:07:13;;;;;;;19.80;13.88;;;;;;;3.58;100.00;101069.88;4949657;28;20043;-71
2022/12/25 07:09:41;;;;;;;21.50;14.52;;;;;;;3.56;100.00;101033.13;4949628;28;20039;-71
2022/12/25 07:12:12;;;;;;;23.00;16.33;;;;;;;3.96;100.00;101074.41;4952100;28;20031;-74
2022/12/25 07:14:38;;;;;;;23.48;18.00;;;;;;;3.89;100.00;101034.72;4952751;28;20084;-73
2022/12/25 07:17:03;;;;;;;20.42;15.20;;;;;;;4.37;100.00;101079.06;4949481;28;20105;-72
2022/12/25 07:19:28;;;;;;;44.15;32.25;;;;;;;4.28;100.00;101045.16;4956554;28;20046;-72
2022/12/25 07:21:54;;;;;;;38.80;27.83;;;;;;;4.60;100.00;101077.25;4991333;28;20628;-72
2022/12/25 07:24:20;;;;;;;36.45;24.42;;;;;;;4.75;100.00;101077.44;5008788;28;20468;-73
2022/12/25 07:26:46;;;;;;;20.15;15.75;;;;;;;4.84;100.00;101066.97;4987196;28;20038;-69
2022/12/25 07:29:13;;;;;;;43.08;30.38;;;;;;;5.05;100.00;101082.00;5006217;28;20032;-72
2022/12/25 07:31:39;;;;;;;26.08;15.93;;;;;;;5.13;100.00;101081.75;4994195;28;20484;-71
2022/12/25 07:34:04;;;;;;;24.35;17.83;;;;;;;5.31;100.00;101089.81;4982990;28;20030;-72
2022/12/25 07:36:30;;;;;;;17.80;12.80;;;;;;;5.19;100.00;101059.13;5002639;28;20559;-72
2022/12/25 07:38:55;;;;;;;16.90;11.43;;;;;;;5.41;100.00;101073.41;4994140;28;20029;-71
2022/12/25 07:41:21;;;;;;;16.20;10.70;;;;;;;5.61;100.00;101097.78;5010365;28;20037;-71
2022/12/25 07:43:51;;;;;;;14.65;10.45;;;;;;;5.77;100.00;101093.69;4999730;28;20440;-72
2022/12/25 07:46:18;;;;;;;17.40;11.63;;;;;;;5.89;100.00;101085.94;4989781;28;20097;-70
2022/12/25 07:48:43;;;;;;;12.13;8.48;;;;;;;6.03;100.00;101090.31;4990254;28;20026;-71
2022/12/25 07:51:13;;;;;;;11.05;8.80;;;;;;;6.16;100.00;101097.13;4990180;28;20053;-70
2022/12/25 07:53:39;;;;;;;12.70;8.80;;;;;;;6.21;100.00;101088.06;5007232;28;20022;-70
2022/12/25 07:56:16;;;;;;;12.68;8.77;;;;;;;6.32;100.00;101089.63;4996496;28;20026;-70
2022/12/25 07:58:43;;;;;;;14.13;9.75;;;;;;;6.45;100.00;101096.41;4990064;28;20109;-70
2022/12/25 08:01:18;;;;;;;13.18;8.27;;;;;;;6.57;100.00;101092.88;4990508;28;20111;-71
2022/12/25 08:03:48;;;;;;;13.65;10.43;;;;;;;6.75;100.00;101098.25;4990658;28;20026;-69
2022/12/25 08:06:13;;;;;;;15.15;11.25;;;;;;;6.96;100.00;101111.53;4972294;28;20572;-69
2022/12/25 08:08:40;;;;;;;15.77;10.88;;;;;;;7.01;100.00;101111.84;4990229;28;20101;-69
2022/12/25 08:11:08;;;;;;;17.23;10.77;;;;;;;7.14;100.00;101122.06;4990817;28;20804;-69
2022/12/25 08:13:33;;;;;;;12.50;9.45;;;;;;;7.03;100.00;101088.03;5005061;28;20113;-72
2022/12/25 08:16:01;;;;;;;15.65;10.35;;;;;;;7.38;100.00;101122.66;4992701;28;20100;-72
2022/12/25 08:18:28;;;;;;;14.18;11.80;;;;;;;7.43;100.00;101128.09;5009782;28;20489;-72
2022/12/25 08:20:53;;;;;;;26.13;16.30;;;;;;;7.42;100.00;101118.59;5009130;28;20030;-69
2022/12/25 08:23:19;;;;;;;13.73;10.95;;;;;;;7.48;100.00;101131.81;5009496;28;20030;-69
2022/12/25 08:25:44;;;;;;;14.93;11.02;;;;;;;7.57;100.00;101152.91;5010302;28;20105;-71
2022/12/25 08:28:10;;;;;;;11.63;9.18;;;;;;;7.66;100.00;101154.28;5010438;28;20081;-71
2022/12/25 08:30:38;;;;;;;12.05;8.70;;;;;;;7.78;100.00;101155.00;5010225;28;20053;-71
2022/12/25 08:33:03;;;;;;;16.30;12.60;;;;;;;7.82;100.00;101149.22;5013903;28;20105;-71
2022/12/25 08:35:28;;;;;;;11.77;8.13;;;;;;;7.94;100.00;101151.66;4996658;28;20124;-71
2022/12/25 08:37:54;;;;;;;15.18;11.40;;;;;;;7.97;100.00;101133.81;5014333;28;20511;-71
2022/12/25 08:40:19;;;;;;;18.15;12.63;;;;;;;8.18;100.00;101134.16;5008162;28;20488;-70
2022/12/25 08:42:45;;;;;;;9.90;7.10;;;;;;;8.40;100.00;101150.84;5013857;28;20034;-71
2022/12/25 08:45:10;;;;;;;10.38;7.90;;;;;;;8.53;100.00;101148.16;5014068;28;20404;-70
2022/12/25 08:47:36;;;;;;;9.38;5.35;;;;;;;8.73;100.00;101153.56;5013675;28;20511;-71
2022/12/25 08:50:01;;;;;;;7.43;3.97;;;;;;;8.95;100.00;101159.88;5013705;28;20026;-70
2022/12/25 08:52:27;;;;;;;6.80;4.30;;;;;;;9.04;100.00;101147.50;5013419;28;20110;-71
2022/12/25 08:54:53;;;;;;;8.45;4.07;;;;;;;9.13;100.00;101149.69;5013589;28;20061;-71
2022/12/25 08:57:18;;;;;;;7.57;4.75;;;;;;;9.23;100.00;101144.22;5013733;28;20030;-71
2022/12/25 08:59:43;;;;;;;7.60;4.30;;;;;;;9.31;100.00;101148.09;5013449;28;20042;-70
2022/12/25 09:02:11;;;;;;;6.63;4.22;;;;;;;9.39;100.00;101149.41;5013806;28;20038;-70
2022/12/25 09:04:36;;;;;;;6.28;3.92;;;;;;;9.53;100.00;101147.53;5013685;28;20038;-70
2022/12/25 09:07:01;;;;;;;5.22;3.35;;;;;;;9.66;100.00;101143.91;5030915;28;20039;-70
2022/12/25 09:09:27;;;;;;;6.70;3.40;;;;;;;9.75;100.00;101156.38;4998261;28;20642;-70
2022/12/25 09:11:53;;;;;;;5.13;2.95;;;;;;;9.86;100.00;101146.63;5033470;28;20030;-70
2022/12/25 09:14:19;;;;;;;7.40;3.15;;;;;;;9.95;100.00;101144.50;5033062;28;20029;-70
2022/12/25 09:16:44;;;;;;;5.18;3.72;;;;;;;9.98;100.00;101142.09;5033175;28;20121;-70
2022/12/25 09:19:09;;;;;;;5.85;4.05;;;;;;;10.11;100.00;101140.97;5015126;28;20128;-70
2022/12/25 09:21:35;;;;;;;7.78;4.43;;;;;;;9.89;100.00;101110.66;5032964;28;20037;-70
2022/12/25 09:24:04;;;;;;;7.03;4.05;;;;;;;10.06;100.00;101137.28;5033018;28;20452;-70
2022/12/25 09:26:30;;;;;;;6.13;3.90;;;;;;;9.83;100.00;101092.28;5032967;28;20037;-70
2022/12/25 09:28:55;;;;;;;7.97;4.40;;;;;;;9.95;100.00;101105.78;5033022;28;20464;-70
2022/12/25 09:31:21;;;;;;;5.65;3.45;;;;;;;9.86;100.00;101076.97;5033213;28;20113;-70
2022/12/25 09:33:47;;;;;;;7.85;4.50;;;;;;;9.95;100.00;101090.31;5032790;28;20033;-70
2022/12/25 09:36:13;;;;;;;8.98;4.97;;;;;;;10.22;100.00;101132.88;5032837;28;20504;-70
2022/12/25 09:38:38;;;;;;;9.40;4.50;;;;;;;10.18;100.00;101132.75;5032615;28;20113;-71
2022/12/25 09:41:13;;;;;;;8.98;5.72;;;;;;;10.17;100.00;101128.38;5032889;28;20036;-70
2022/12/25 09:43:45;;;;;;;10.45;4.75;;;;;;;10.31;100.00;101129.06;4992604;28;20034;-70
2022/12/25 09:46:15;;;;;;;9.25;6.15;;;;;;;10.31;100.00;101086.88;4992572;28;20054;-70
2022/12/25 09:48:46;;;;;;;11.77;6.70;;;;;;;10.65;100.00;101115.22;4993397;28;20049;-70
2022/12/25 09:51:15;;;;;;;9.52;5.53;;;;;;;10.68;100.00;101081.78;4995659;28;20030;-70
2022/12/25 09:54:09;;;;;;;11.02;6.57;;;;;;;11.07;100.00;101116.25;5012909;28;20034;-70
2022/12/25 09:56:35;;;;;;;9.85;4.70;;;;;;;11.14;100.00;101123.44;4913936;29;20055;-70
2022/12/25 09:59:01;;;;;;;8.38;4.32;;;;;;;11.20;100.00;101118.56;4913901;29;20423;-70
2022/12/25 10:01:54;;;;;;;8.02;4.53;;;;;;;11.30;100.00;101107.81;4913912;29;20745;-70
2022/12/25 10:04:45;;;;;;;9.30;6.60;;;;;;;11.45;100.00;101104.13;4857655;29;20109;-70
2022/12/25 10:07:22;;;;;;;14.75;9.13;;;;;;;11.59;100.00;101109.88;4857422;29;20531;-70
2022/12/25 10:10:28;;;;;;;18.75;11.52;;;;;;;11.64;100.00;101103.25;4857512;29;20532;-70
2022/12/25 10:13:29;;;;;;;9.52;4.88;;;;;;;11.68;100.00;101114.59;4820836;29;20438;-70
2022/12/25 10:16:25;;;;;;;8.52;4.90;;;;;;;11.58;96.88;101095.22;4748827;30;20078;-70
2022/12/25 10:18:56;;;;;;;9.70;5.05;;;;;;;11.70;98.74;101093.16;4748902;30;20437;-71
2022/12/25 10:21:22;;;;;;;10.40;5.22;;;;;;;11.65;99.79;101064.50;4748572;30;20119;-72
2022/12/25 10:23:56;;;;;;;6.70;4.07;;;;;;;11.91;99.25;101090.59;4747647;30;20131;-70
2022/12/25 10:26:24;;;;;;;5.90;4.07;;;;;;;12.00;99.99;101084.03;4747679;30;20124;-70
2022/12/25 10:28:57;;;;;;;7.45;4.40;;;;;;;12.08;97.58;101096.47;4747330;30;20135;-71
2022/12/25 10:31:25;;;;;;;6.65;3.50;;;;;;;12.10;94.49;101093.94;4748815;30;20044;-71
2022/12/25 10:33:52;;;;;;;6.10;2.90;;;;;;;12.20;91.30;101090.91;4769754;30;20485;-71
2022/12/25 10:36:24;;;;;;;5.30;2.53;;;;;;;12.23;90.54;101088.44;4783078;30;20130;-71
2022/12/25 10:38:50;;;;;;;5.75;3.13;;;;;;;12.36;92.85;101096.69;4783815;30;20042;-71
2022/12/25 10:41:34;;;;;;;6.35;3.63;;;;;;;12.38;93.27;101095.06;4809722;29;20137;-71
2022/12/25 10:44:12;;;;;;;5.28;3.75;;;;;;;12.43;93.96;101099.59;4886350;29;20044;-72
2022/12/25 10:46:37;;;;;;;4.68;2.63;;;;;;;12.42;89.74;101103.03;4912240;29;20099;-71
2022/12/25 10:49:03;;;;;;;6.65;3.28;;;;;;;12.53;90.28;101102.56;4896922;29;20059;-71
2022/12/25 10:51:31;;;;;;;4.90;2.60;;;;;;;12.50;88.77;101113.69;4912230;29;20028;-71
2022/12/25 10:53:57;;;;;;;5.70;3.42;;;;;;;12.43;89.54;101115.13;5003974;28;20128;-71
2022/12/25 10:56:23;;;;;;;7.22;2.80;;;;;;;12.54;89.53;101112.97;5009986;28;20110;-71
2022/12/25 10:58:48;;;;;;;4.53;2.60;;;;;;;12.68;87.26;101115.22;5010238;28;20404;-72
2022/12/25 11:01:14;;;;;;;6.03;2.60;;;;;;;12.62;86.21;101102.91;5010599;28;20033;-71
2022/12/25 11:03:44;;;;;;;8.38;3.75;;;;;;;12.62;85.73;101090.84;5010309;28;20060;-71
2022/12/25 11:06:28;;;;;;;10.30;3.47;;;;;;;12.67;87.51;101088.41;5010663;28;20508;-71
2022/12/25 11:08:57;;;;;;;6.40;3.40;;;;;;;12.73;87.97;101091.22;5008929;28;20036;-70
2022/12/25 11:11:23;;;;;;;6.00;3.00;;;;;;;12.69;88.71;101079.00;5028019;28;20408;-70
2022/12/25 11:13:56;;;;;;;5.53;2.90;;;;;;;12.89;88.84;101094.44;5030581;28;20041;-71
2022/12/25 11:16:36;;;;;;;5.25;2.90;;;;;;;12.83;88.78;101099.38;5030619;28;20029;-71
2022/12/25 11:19:03;;;;;;;5.40;2.30;;;;;;;12.84;87.72;101102.00;5030787;28;20041;-71
2022/12/25 11:21:31;;;;;;;5.10;2.40;;;;;;;12.69;86.15;101099.72;5030721;28;20029;-70
2022/12/25 11:24:05;;;;;;;6.20;3.63;;;;;;;12.88;87.30;101095.25;5013653;28;20036;-71
2022/12/25 11:26:44;;;;;;;5.35;2.70;;;;;;;12.95;88.52;101094.66;5010861;28;20037;-71
2022/12/25 11:29:23;;;;;;;7.20;2.97;;;;;;;12.83;88.13;101060.50;5010860;28;20037;-70
2022/12/25 11:31:50;;;;;;;5.47;2.45;;;;;;;12.94;85.70;101090.28;5010473;28;20025;-71
2022/12/25 11:34:54;;;;;;;4.35;2.28;;;;;;;12.97;85.45;101099.88;5009412;28;20140;-70
2022/12/25 11:37:44;;;;;;;8.20;3.00;;;;;;;12.83;86.27;101068.28;4910934;29;20040;-71
2022/12/25 11:40:21;;;;;;;5.55;2.60;;;;;;;12.97;85.74;101094.69;4896421;29;20040;-70
2022/12/25 11:42:50;;;;;;;5.40;2.80;;;;;;;12.97;85.44;101092.97;4910403;29;20040;-71
2022/12/25 11:45:32;;;;;;;3.53;2.17;;;;;;;12.92;83.72;101110.97;4910802;29;20088;-71
2022/12/25 11:47:57;;;;;;;6.50;2.53;;;;;;;12.91;83.77;101091.06;4894314;29;20148;-71
2022/12/25 11:50:48;;;;;;;4.80;1.98;;;;;;;12.96;84.11;101093.84;4911246;29;20119;-71
2022/12/25 11:53:28;;;;;;;4.40;2.25;;;;;;;12.98;83.21;101102.53;4906989;29;20062;-71
2022/12/25 11:56:06;;;;;;;5.10;2.47;;;;;;;12.95;85.00;101100.72;4912233;29;20072;-71
2022/12/25 11:58:36;;;;;;;4.88;2.50;;;;;;;13.01;86.29;101097.47;4906409;29;20091;-71
2022/12/25 12:01:14;;;;;;;8.85;3.28;;;;;;;12.99;88.40;101099.13;4904022;29;20063;-71
2022/12/25 12:03:41;;;;;;;5.38;2.83;;;;;;;13.00;86.92;101093.09;4901654;29;20040;-72
2022/12/25 12:06:12;;;;;;;4.10;2.63;;;;;;;13.11;87.59;101102.16;4907841;29;20131;-72
2022/12/25 12:08:38;;;;;;;5.28;2.22;;;;;;;13.07;86.54;101101.97;4973283;28;20547;-72
2022/12/25 12:11:52;;;;;;;3.13;1.98;;;;;;;13.14;86.42;101110.88;4995051;28;20120;-71
2022/12/25 12:14:43;;;;;;;4.80;2.60;;;;;;;13.09;84.99;101083.06;4914830;29;20044;-72
2022/12/25 12:17:14;;;;;;;3.60;1.85;;;;;;;13.16;85.06;101097.16;4914640;29;20040;-72
2022/12/25 12:19:40;;;;;;;5.28;2.47;;;;;;;13.23;84.44;101099.16;4913991;29;20032;-72
2022/12/25 12:22:07;;;;;;;4.43;1.98;;;;;;;13.19;83.44;101086.00;4914853;29;20044;-72
2022/12/25 12:24:41;;;;;;;5.50;2.33;;;;;;;13.18;86.02;101082.50;4914155;29;20040;-72
2022/12/25 12:27:38;;;;;;;4.60;2.08;;;;;;;13.27;85.51;101095.84;4915050;29;20075;-72
2022/12/25 12:30:06;;;;;;;3.50;2.13;;;;;;;13.07;83.17;101079.56;4877391;29;20112;-73
2022/12/25 12:32:48;;;;;;;5.87;2.10;;;;;;;13.12;82.41;101118.59;4877340;29;20077;-72
2022/12/25 12:35:18;;;;;;;4.68;2.00;;;;;;;13.15;81.80;101108.34;4876916;29;20334;-73
2022/12/25 12:37:45;;;;;;;;;;;;;;;13.04;82.03;101120.03;4877665;29;20085;-71
2022/12/25 12:40:22;;;;;;;3.72;1.90;;;;;;;12.97;79.51;101115.44;4877390;29;19923;-73
2022/12/25 12:42:49;;;;;;;4.22;2.00;;;;;;;12.86;80.60;101115.94;4877040;29;20071;-73
2022/12/25 12:45:28;;;;;;;7.50;2.47;;;;;;;12.63;80.92;101083.94;4876718;29;20049;-73
2022/12/25 12:47:54;;;;;;;10.13;3.15;;;;;;;12.83;80.16;101118.38;4877025;29;20041;-73
2022/12/25 12:50:39;;;;;;;6.10;2.63;;;;;;;12.76;81.23;101109.50;4903004;29;20035;-71
2022/12/25 12:53:15;;;;;;;11.50;2.67;;;;;;;12.96;79.73;101127.53;4959270;28;20038;-71
2022/12/25 12:55:41;;;;;;;6.43;2.08;;;;;;;12.98;79.63;101128.44;4971570;28;20464;-72
2022/12/25 12:58:10;;;;;;;11.65;6.57;;;;;;;12.66;80.72;101065.94;4971649;28;20035;-71
2022/12/25 13:00:42;;;;;;;7.78;2.90;;;;;;;13.03;79.49;101134.69;4962230;28;20035;-72
2022/12/25 13:03:30;;;;;;;4.07;2.13;;;;;;;13.01;78.06;101133.75;4966565;28;20536;-71
2022/12/25 13:05:55;;;;;;;19.73;11.35;;;;;;;13.02;78.91;101137.22;4924620;28;20058;-70
2022/12/25 13:08:33;;;;;;;4.97;1.90;;;;;;;13.01;77.04;101146.72;5004501;28;20128;-70
2022/12/25 13:11:30;;;;;;;7.30;2.63;;;;;;;13.04;76.61;101141.63;5002972;28;20049;-68
2022/12/25 13:14:00;;;;;;;10.68;6.53;;;;;;;13.00;76.54;101144.94;4991689;28;20077;-70